Portada
METAR-TAF:

METAR-TAF

Aeropuertos :

Aeropuerto Internacional de Sharm el-Sheij

Sharm el-Sheij, Egipto

latitud: 27-58N, longitud: 034-23E, altitud: 50 m

Observación

El informe se hizo hace 1 hora y 24 minutos, a las 14:00 UTC
Viento 5 kt del norte-noreste
Temperatura 36°C
Humedad 24%
Presión 1009 hPa
Visibilidad 10 km o más
sin nubes por debajo de 1500 m y sin presencia de cumulonimbus.

METAR: HESH 041400Z 02005KT CAVOK 36/12 Q1009 NOSIG

Hora: 17:24 (15:24 UTC)

Pronóstico

El informe se hizo hace 4 horas y 24 minutos, a las 11:00 UTC
Pronóstico válido del 04 a las 12 UTC al 05 a las 18 UTC
Viento 13 kt del norte-noreste
Visibilidad 10 km o más
sin nubes por debajo de 1500 m y sin presencia de cumulonimbus.

TAF: HESH 041100Z 0412/0518 02013KT CAVOK

Observaciones y pronósticos meteorológicos de más de 4000 aeropuertos (mensajes METAR y TAF).

Los puntos amarillos y rojos representan las estaciones disponibles.

Ponga el ratón en el punto deseado para ver el nombre de la estación.

Haga clic para ver las observaciones y los pronósticos meteorológicos.

Para cambiar el mapa : haga clic en los botones verdes con una cruz de color negro para hacer un zoom, en el botón verde con un guión para alejar o en las flechas verdes para mapas adyacentes.


METAR-TAF: